Time;durP1;ratioP1;P1;durP2;ratioP2;P2;SDS_P1;SDS_P2;PMS_P1;PMS_P2;Temp;Humidity;BMP_temperature;BMP_pressure;BME280_temperature;BME280_humidity;BME280_pressure;Samples;Min_cycle;Max_cycle;Signal;HPM_P1;HPM_P2
2022/03/07 00:00:04;;;;;;;11.07;9.87;;;;;;;;;;5043421;28;20221;-77
2022/03/07 00:02:32;;;;;;;10.87;9.87;;;;;;;;;;5042644;28;20216;-76
2022/03/07 00:05:04;;;;;;;10.37;9.23;;;;;;;;;;5033096;28;20218;-77
2022/03/07 00:07:34;;;;;;;10.93;9.77;;;;;;;;;;5037040;28;20209;-76
2022/03/07 00:10:04;;;;;;;10.93;9.83;;;;;;;;;;5046083;28;20202;-77
2022/03/07 00:12:31;;;;;;;11.27;9.93;;;;;;;;;;5038088;28;20229;-77
2022/03/07 00:14:59;;;;;;;11.47;9.70;;;;;;;;;;5044706;28;20257;-76
2022/03/07 00:17:27;;;;;;;10.60;9.50;;;;;;;;;;5057325;28;20679;-77
2022/03/07 00:19:54;;;;;;;9.83;8.93;;;;;;;;;;5038738;28;20218;-77
2022/03/07 00:22:22;;;;;;;9.53;8.53;;;;;;;;;;5051563;28;20219;-76
2022/03/07 00:24:49;;;;;;;9.17;8.27;;;;;;;;;;5050794;28;20304;-76
2022/03/07 00:27:16;;;;;;;9.30;8.50;;;;;;;;;;5043863;28;20206;-77
2022/03/07 00:29:43;;;;;;;11.47;9.07;;;;;;;;;;5036079;28;20233;-76
2022/03/07 00:32:11;;;;;;;10.23;9.23;;;;;;;;;;5037501;28;20245;-77
2022/03/07 00:34:39;;;;;;;9.73;8.83;;;;;;;;;;5038670;28;20330;-77
2022/03/07 00:37:06;;;;;;;9.83;8.90;;;;;;;;;;5035039;28;20214;-76
2022/03/07 00:39:34;;;;;;;10.00;8.83;;;;;;;;;;5043971;28;20217;-77
2022/03/07 00:42:01;;;;;;;10.00;9.03;;;;;;;;;;5054198;28;20291;-76
2022/03/07 00:44:28;;;;;;;9.20;8.40;;;;;;;;;;5046169;28;20334;-76
2022/03/07 00:46:55;;;;;;;10.33;9.33;;;;;;;;;;5043413;28;20206;-76
2022/03/07 00:49:22;;;;;;;9.47;8.33;;;;;;;;;;5035733;28;20213;-76
2022/03/07 00:51:51;;;;;;;9.80;8.83;;;;;;;;;;5040923;28;20228;-76
2022/03/07 00:54:18;;;;;;;10.17;8.80;;;;;;;;;;5048578;28;20269;-76
2022/03/07 00:56:46;;;;;;;9.30;8.40;;;;;;;;;;5047931;28;20286;-76
2022/03/07 00:59:13;;;;;;;9.40;8.50;;;;;;;;;;5041232;28;20224;-76
2022/03/07 01:01:40;;;;;;;10.17;9.10;;;;;;;;;;5046826;28;20222;-76
2022/03/07 01:04:07;;;;;;;9.83;8.93;;;;;;;;;;5053278;28;20237;-77
2022/03/07 01:06:34;;;;;;;10.90;8.77;;;;;;;;;;5048261;28;20198;-76
2022/03/07 01:09:03;;;;;;;9.80;8.80;;;;;;;;;;5045584;28;20297;-78
2022/03/07 01:11:30;;;;;;;10.07;9.13;;;;;;;;;;5044505;28;20198;-76
2022/03/07 01:13:57;;;;;;;9.67;8.77;;;;;;;;;;5052331;28;20225;-76
2022/03/07 01:16:25;;;;;;;9.30;8.47;;;;;;;;;;5049052;28;20281;-76
2022/03/07 01:18:52;;;;;;;9.50;8.60;;;;;;;;;;5050789;28;20310;-76
2022/03/07 01:21:19;;;;;;;9.90;8.90;;;;;;;;;;5042726;28;20277;-78
2022/03/07 01:23:46;;;;;;;9.27;8.37;;;;;;;;;;5049990;28;20243;-76
2022/03/07 01:26:15;;;;;;;9.13;8.23;;;;;;;;;;5033697;28;20212;-76
2022/03/07 01:28:42;;;;;;;8.87;8.07;;;;;;;;;;5033665;28;20294;-76
2022/03/07 01:31:10;;;;;;;9.63;8.40;;;;;;;;;;5040140;28;20547;-75
2022/03/07 01:33:37;;;;;;;8.40;7.57;;;;;;;;;;5038601;28;20233;-77
2022/03/07 01:36:04;;;;;;;9.77;8.77;;;;;;;;;;5053473;28;20328;-77
2022/03/07 01:38:32;;;;;;;9.53;8.60;;;;;;;;;;5049701;28;20213;-77
2022/03/07 01:40:59;;;;;;;8.37;7.57;;;;;;;;;;5051960;28;20288;-79
2022/03/07 01:43:29;;;;;;;8.70;7.63;;;;;;;;;;5053929;28;20304;-79
2022/03/07 01:45:56;;;;;;;9.07;8.13;;;;;;;;;;5050883;28;20201;-79
2022/03/07 01:48:23;;;;;;;9.40;8.47;;;;;;;;;;5056721;28;20260;-79
2022/03/07 01:50:51;;;;;;;8.70;7.83;;;;;;;;;;5035161;28;20209;-79
2022/03/07 01:53:21;;;;;;;9.50;8.50;;;;;;;;;;5035230;28;20227;-79
2022/03/07 01:55:48;;;;;;;9.57;8.20;;;;;;;;;;5038894;28;20284;-79
2022/03/07 01:58:16;;;;;;;8.90;8.00;;;;;;;;;;5038128;28;20294;-79
2022/03/07 02:00:44;;;;;;;8.97;8.10;;;;;;;;;;5051386;28;20272;-79
2022/03/07 02:03:12;;;;;;;8.60;7.60;;;;;;;;;;5038432;28;20273;-79
2022/03/07 02:05:39;;;;;;;8.80;7.90;;;;;;;;;;5038259;28;20198;-79
2022/03/07 02:08:06;;;;;;;8.83;7.93;;;;;;;;;;5036594;28;20264;-79
2022/03/07 02:10:34;;;;;;;9.13;8.13;;;;;;;;;;5045193;28;20194;-79
2022/03/07 02:13:01;;;;;;;9.37;8.13;;;;;;;;;;5045010;28;20206;-79
2022/03/07 02:15:28;;;;;;;9.20;8.20;;;;;;;;;;5038308;28;20229;-79
2022/03/07 02:17:56;;;;;;;8.27;7.47;;;;;;;;;;5037299;28;20277;-79
2022/03/07 02:20:24;;;;;;;8.90;7.87;;;;;;;;;;5042866;28;20594;-79
2022/03/07 02:22:52;;;;;;;9.43;8.50;;;;;;;;;;5049072;28;20300;-79
2022/03/07 02:25:20;;;;;;;10.07;8.33;;;;;;;;;;5034667;28;20285;-79
2022/03/07 02:27:47;;;;;;;9.93;8.93;;;;;;;;;;5035112;28;20288;-79
2022/03/07 02:30:14;;;;;;;9.87;8.43;;;;;;;;;;5040121;28;20228;-79
2022/03/07 02:32:42;;;;;;;9.67;8.60;;;;;;;;;;5046036;28;20205;-79
2022/03/07 02:35:10;;;;;;;9.63;8.67;;;;;;;;;;5038759;28;20233;-79
2022/03/07 02:37:37;;;;;;;10.80;8.53;;;;;;;;;;5037290;28;20282;-79
2022/03/07 02:40:06;;;;;;;9.43;8.53;;;;;;;;;;5052508;28;20299;-79
2022/03/07 02:42:34;;;;;;;11.90;10.07;;;;;;;;;;5041836;28;20201;-79
2022/03/07 02:45:01;;;;;;;11.07;9.57;;;;;;;;;;5038712;28;20253;-79
2022/03/07 02:47:28;;;;;;;10.40;9.30;;;;;;;;;;5037639;28;20214;-79
2022/03/07 02:49:55;;;;;;;10.63;9.50;;;;;;;;;;5046522;28;20201;-79
2022/03/07 02:52:23;;;;;;;10.33;9.13;;;;;;;;;;5049140;28;20209;-79
2022/03/07 02:54:50;;;;;;;10.57;9.47;;;;;;;;;;5044160;28;20248;-79
2022/03/07 02:57:21;;;;;;;10.67;9.53;;;;;;;;;;5036976;28;20276;-79
2022/03/07 02:59:49;;;;;;;10.60;9.33;;;;;;;;;;5046572;28;20205;-79
2022/03/07 03:02:16;;;;;;;11.80;9.33;;;;;;;;;;5057236;28;20225;-79
2022/03/07 03:04:43;;;;;;;12.43;9.67;;;;;;;;;;5048296;28;20312;-79
2022/03/07 03:07:10;;;;;;;11.77;9.23;;;;;;;;;;5039550;28;20201;-79
2022/03/07 03:09:38;;;;;;;12.73;9.57;;;;;;;;;;5044022;28;20266;-79
2022/03/07 03:12:10;;;;;;;10.63;9.10;;;;;;;;;;5048749;28;20201;-79
2022/03/07 03:14:39;;;;;;;10.30;9.17;;;;;;;;;;5051437;28;20620;-79
2022/03/07 03:17:09;;;;;;;10.23;9.13;;;;;;;;;;5060103;28;20239;-79
2022/03/07 03:19:36;;;;;;;9.53;8.53;;;;;;;;;;5049711;28;20228;-79
2022/03/07 03:22:04;;;;;;;9.90;8.90;;;;;;;;;;5041956;28;20281;-79
2022/03/07 03:24:32;;;;;;;10.50;9.40;;;;;;;;;;5057296;28;20236;-79
2022/03/07 03:26:59;;;;;;;10.70;9.10;;;;;;;;;;5048050;28;20743;-79
2022/03/07 03:29:26;;;;;;;11.70;9.57;;;;;;;;;;5041986;28;20202;-79
2022/03/07 03:31:55;;;;;;;11.20;9.97;;;;;;;;;;5042959;28;20212;-79
2022/03/07 03:34:22;;;;;;;10.57;9.47;;;;;;;;;;5041849;28;20257;-79
2022/03/07 03:36:49;;;;;;;10.50;9.37;;;;;;;;;;5041944;28;20296;-79
2022/03/07 03:39:17;;;;;;;10.77;9.47;;;;;;;;;;5042878;28;20269;-79
2022/03/07 03:41:44;;;;;;;11.13;9.83;;;;;;;;;;5042361;28;20231;-79
2022/03/07 03:44:11;;;;;;;13.70;10.00;;;;;;;;;;5049479;28;20245;-79
2022/03/07 03:46:39;;;;;;;11.13;10.03;;;;;;;;;;5046511;28;20277;-79
2022/03/07 03:49:08;;;;;;;11.23;9.80;;;;;;;;;;5049268;28;20209;-79
2022/03/07 03:51:35;;;;;;;11.07;9.87;;;;;;;;;;5061259;28;20208;-79
2022/03/07 03:54:02;;;;;;;11.93;10.10;;;;;;;;;;5049482;28;20226;-79
2022/03/07 03:56:30;;;;;;;12.10;10.13;;;;;;;;;;5060822;28;20244;-79
2022/03/07 03:58:57;;;;;;;11.47;10.27;;;;;;;;;;5055061;28;20206;-79
2022/03/07 04:01:25;;;;;;;12.53;10.33;;;;;;;;;;5050143;28;20233;-79
2022/03/07 04:03:52;;;;;;;12.73;9.77;;;;;;;;;;5060795;28;20229;-79
2022/03/07 04:06:20;;;;;;;11.73;9.53;;;;;;;;;;5057276;28;20274;-79
2022/03/07 04:08:50;;;;;;;12.13;10.43;;;;;;;;;;5058599;28;20273;-79
2022/03/07 04:11:17;;;;;;;11.33;10.20;;;;;;;;;;5058082;28;20221;-79
2022/03/07 04:13:44;;;;;;;11.63;10.43;;;;;;;;;;5054549;28;20241;-79
2022/03/07 04:16:11;;;;;;;12.13;10.07;;;;;;;;;;5046221;28;20212;-79
2022/03/07 04:18:38;;;;;;;11.23;9.83;;;;;;;;;;5058943;28;20209;-79
2022/03/07 04:21:06;;;;;;;12.20;10.77;;;;;;;;;;5060905;28;20695;-79
2022/03/07 04:23:35;;;;;;;12.57;10.40;;;;;;;;;;5041144;28;20232;-79
2022/03/07 04:26:03;;;;;;;11.13;9.60;;;;;;;;;;5034712;28;20233;-79
2022/03/07 04:28:30;;;;;;;11.73;10.17;;;;;;;;;;5034473;28;20217;-79
2022/03/07 04:30:58;;;;;;;12.80;11.00;;;;;;;;;;5034046;28;20288;-79
2022/03/07 04:33:25;;;;;;;11.60;10.40;;;;;;;;;;5045234;28;20224;-79
2022/03/07 04:35:52;;;;;;;11.93;10.63;;;;;;;;;;5056851;28;20221;-79
2022/03/07 04:38:24;;;;;;;11.93;10.63;;;;;;;;;;5046509;28;20296;-79
2022/03/07 04:40:53;;;;;;;12.33;10.83;;;;;;;;;;5059993;28;20695;-79
2022/03/07 04:43:20;;;;;;;12.03;10.57;;;;;;;;;;5052217;28;20233;-79
2022/03/07 04:45:47;;;;;;;12.50;10.60;;;;;;;;;;5031075;28;20209;-79
2022/03/07 04:48:15;;;;;;;12.00;10.07;;;;;;;;;;5036448;28;20285;-79
2022/03/07 04:50:42;;;;;;;12.13;10.23;;;;;;;;;;5033694;28;20205;-79
2022/03/07 04:53:09;;;;;;;13.03;11.00;;;;;;;;;;5044080;28;20285;-79
2022/03/07 04:55:37;;;;;;;12.70;10.73;;;;;;;;;;5045230;28;20220;-79
2022/03/07 04:58:05;;;;;;;13.60;11.20;;;;;;;;;;5052525;28;20269;-79
2022/03/07 05:00:32;;;;;;;12.53;10.10;;;;;;;;;;5077722;28;20189;-80
2022/03/07 05:03:00;;;;;;;15.07;11.73;;;;;;;;;;5053894;28;20280;-79
2022/03/07 05:05:27;;;;;;;13.03;10.87;;;;;;;;;;5054998;28;20292;-79
2022/03/07 05:07:54;;;;;;;12.90;10.63;;;;;;;;;;5042239;28;20207;-79
2022/03/07 05:10:22;;;;;;;10.87;9.77;;;;;;;;;;5040010;28;20289;-79
2022/03/07 05:12:50;;;;;;;11.33;10.17;;;;;;;;;;5044031;28;20285;-79
2022/03/07 05:15:18;;;;;;;11.30;10.03;;;;;;;;;;5044583;28;20249;-79
2022/03/07 05:17:48;;;;;;;14.50;10.60;;;;;;;;;;5036114;28;20289;-79
2022/03/07 05:20:16;;;;;;;12.33;10.47;;;;;;;;;;5037231;28;20197;-79
2022/03/07 05:22:44;;;;;;;12.10;10.77;;;;;;;;;;5036960;28;20217;-79
2022/03/07 05:25:11;;;;;;;11.70;10.50;;;;;;;;;;5046680;28;20221;-79
2022/03/07 05:27:39;;;;;;;12.60;10.40;;;;;;;;;;5037459;28;20269;-79
2022/03/07 05:30:07;;;;;;;12.07;10.80;;;;;;;;;;5043315;28;20197;-79
2022/03/07 05:32:36;;;;;;;11.57;10.30;;;;;;;;;;5036909;28;20233;-79
2022/03/07 05:35:03;;;;;;;11.17;9.90;;;;;;;;;;5042612;28;20289;-79
2022/03/07 05:37:31;;;;;;;11.20;9.83;;;;;;;;;;5041125;28;20373;-79
2022/03/07 05:39:58;;;;;;;11.27;9.83;;;;;;;;;;5033568;28;20197;-79
2022/03/07 05:42:25;;;;;;;11.43;9.67;;;;;;;;;;5036803;28;20232;-79
2022/03/07 05:44:53;;;;;;;10.87;9.47;;;;;;;;;;5039893;28;20217;-79
2022/03/07 05:47:20;;;;;;;11.73;9.83;;;;;;;;;;5036848;28;20244;-79
2022/03/07 05:49:49;;;;;;;10.13;9.10;;;;;;;;;;5040698;28;20266;-79
2022/03/07 05:52:17;;;;;;;13.67;10.37;;;;;;;;;;5038124;28;20222;-79
2022/03/07 05:54:44;;;;;;;11.30;10.03;;;;;;;;;;5037762;28;20245;-79
2022/03/07 05:57:12;;;;;;;12.57;10.10;;;;;;;;;;5037183;28;20236;-79
2022/03/07 05:59:39;;;;;;;12.23;10.93;;;;;;;;;;5037404;28;20293;-79
2022/03/07 06:02:06;;;;;;;10.70;9.60;;;;;;;;;;5034217;28;20277;-79
2022/03/07 06:04:34;;;;;;;14.03;10.03;;;;;;;;;;5038191;28;20220;-79
2022/03/07 06:07:02;;;;;;;11.57;9.43;;;;;;;;;;5031071;28;20216;-79
2022/03/07 06:09:29;;;;;;;10.83;9.37;;;;;;;;;;5027351;28;20229;-79
2022/03/07 06:11:57;;;;;;;11.70;9.63;;;;;;;;;;5031737;28;20288;-79
2022/03/07 06:14:24;;;;;;;10.27;8.90;;;;;;;;;;5030410;28;20230;-79
2022/03/07 06:16:52;;;;;;;9.93;8.90;;;;;;;;;;5036182;28;20205;-79
2022/03/07 06:19:19;;;;;;;10.20;9.20;;;;;;;;;;5036075;28;20206;-79
2022/03/07 06:21:46;;;;;;;10.77;8.43;;;;;;;;;;5037731;28;20276;-79
2022/03/07 06:24:15;;;;;;;10.27;9.20;;;;;;;;;;5031842;28;20257;-79
2022/03/07 06:26:44;;;;;;;13.13;9.07;;;;;;;;;;5031435;28;20256;-79
2022/03/07 06:29:12;;;;;;;11.23;9.23;;;;;;;;;;5036680;28;20208;-79
2022/03/07 06:31:42;;;;;;;9.47;8.47;;;;;;;;;;5032125;28;20282;-80
2022/03/07 06:34:10;;;;;;;10.77;8.93;;;;;;;;;;5033677;28;20222;-79
2022/03/07 06:36:37;;;;;;;10.00;8.87;;;;;;;;;;5033796;28;20220;-79
2022/03/07 06:39:04;;;;;;;9.33;8.30;;;;;;;;;;5032155;28;20202;-79
2022/03/07 06:41:34;;;;;;;10.17;8.50;;;;;;;;;;5049915;28;20308;-79
2022/03/07 06:44:01;;;;;;;8.53;7.67;;;;;;;;;;5036828;28;20230;-79
2022/03/07 06:46:29;;;;;;;10.63;8.80;;;;;;;;;;5041762;28;20228;-79
2022/03/07 06:48:56;;;;;;;10.47;8.60;;;;;;;;;;5043630;28;20205;-79
2022/03/07 06:51:23;;;;;;;10.13;8.33;;;;;;;;;;5030564;28;20630;-80
2022/03/07 06:53:51;;;;;;;10.53;8.50;;;;;;;;;;5035773;28;20245;-79
2022/03/07 06:56:18;;;;;;;11.43;9.30;;;;;;;;;;5039131;28;20197;-79
2022/03/07 06:58:47;;;;;;;12.03;9.30;;;;;;;;;;5037463;28;20205;-79
2022/03/07 07:01:17;;;;;;;16.03;8.83;;;;;;;;;;5047574;28;20247;-79
2022/03/07 07:03:44;;;;;;;12.60;8.60;;;;;;;;;;5042848;28;20253;-79
2022/03/07 07:06:12;;;;;;;9.03;8.13;;;;;;;;;;5037509;28;20198;-79
2022/03/07 07:08:39;;;;;;;10.60;8.93;;;;;;;;;;5036163;28;20226;-78
2022/03/07 07:11:06;;;;;;;10.33;8.33;;;;;;;;;;5031064;28;20298;-79
2022/03/07 07:13:33;;;;;;;9.00;8.03;;;;;;;;;;5028175;28;20276;-78
2022/03/07 07:16:02;;;;;;;9.87;8.13;;;;;;;;;;5040933;28;20227;-78
2022/03/07 07:18:29;;;;;;;9.03;8.13;;;;;;;;;;5031431;28;20240;-79
2022/03/07 07:20:57;;;;;;;9.53;8.40;;;;;;;;;;5035122;28;20227;-78
2022/03/07 07:23:24;;;;;;;10.27;8.40;;;;;;;;;;5047314;28;20300;-80
2022/03/07 07:25:51;;;;;;;9.03;8.13;;;;;;;;;;5038959;28;20206;-80
2022/03/07 07:28:22;;;;;;;10.07;8.10;;;;;;;;;;5034019;28;20213;-80
2022/03/07 07:30:50;;;;;;;8.40;7.53;;;;;;;;;;5031372;28;20196;-80
2022/03/07 07:35:59;;;;;;;9.10;7.90;;;;;;;;;;5010060;28;20215;-75
2022/03/07 07:38:26;;;;;;;10.10;8.43;;;;;;;;;;5010751;28;20199;-76
2022/03/07 07:40:55;;;;;;;10.17;8.70;;;;;;;;;;5012009;28;20233;-77
2022/03/07 07:43:23;;;;;;;9.40;8.40;;;;;;;;;;5008942;28;20253;-77
2022/03/07 07:45:50;;;;;;;13.93;8.73;;;;;;;;;;5010719;28;20198;-77
2022/03/07 07:48:17;;;;;;;9.50;8.00;;;;;;;;;;5011337;28;20268;-77
2022/03/07 07:50:55;;;;;;;9.73;8.13;;;;;;;;;;5013924;28;20249;-85
2022/03/07 07:53:23;;;;;;;8.97;8.10;;;;;;;;;;5015545;28;20213;-75
2022/03/07 07:55:54;;;;;;;14.00;8.43;;;;;;;;;;5011678;28;20229;-79
2022/03/07 07:58:24;;;;;;;13.50;8.83;;;;;;;;;;5007852;28;20591;-79
2022/03/07 08:00:54;;;;;;;11.60;9.27;;;;;;;;;;5014216;28;20201;-79
2022/03/07 08:03:24;;;;;;;11.60;8.73;;;;;;;;;;5012836;28;20222;-77
2022/03/07 08:05:51;;;;;;;9.87;8.40;;;;;;;;;;5012804;28;20206;-76
2022/03/07 08:08:19;;;;;;;9.93;8.17;;;;;;;;;;5008974;28;20203;-77
2022/03/07 08:10:47;;;;;;;9.00;8.00;;;;;;;;;;5011386;28;20199;-77
2022/03/07 08:13:15;;;;;;;10.73;8.60;;;;;;;;;;5012749;28;20198;-78
2022/03/07 08:15:42;;;;;;;10.67;8.80;;;;;;;;;;5015573;28;20250;-77
2022/03/07 08:18:10;;;;;;;11.03;9.40;;;;;;;;;;5008638;28;20205;-77
2022/03/07 08:20:38;;;;;;;10.23;9.13;;;;;;;;;;5015651;28;20203;-77
2022/03/07 08:23:05;;;;;;;10.63;9.23;;;;;;;;;;5015854;28;20227;-75
2022/03/07 08:25:33;;;;;;;10.60;9.00;;;;;;;;;;5014858;28;20231;-74
2022/03/07 08:28:02;;;;;;;10.57;8.90;;;;;;;;;;5010022;28;20203;-74
2022/03/07 08:30:29;;;;;;;11.53;9.43;;;;;;;;;;5007661;28;20210;-74
2022/03/07 08:32:57;;;;;;;10.60;9.10;;;;;;;;;;5006163;28;20204;-74
2022/03/07 08:35:25;;;;;;;11.37;9.03;;;;;;;;;;5005659;28;20668;-74
2022/03/07 08:37:53;;;;;;;11.40;9.87;;;;;;;;;;5006434;28;20195;-74
2022/03/07 08:40:21;;;;;;;10.13;8.77;;;;;;;;;;5007138;28;20213;-74
2022/03/07 08:42:49;;;;;;;11.83;9.00;;;;;;;;;;5013263;28;20285;-74
2022/03/07 08:45:17;;;;;;;10.50;9.40;;;;;;;;;;5012428;28;20333;-75
2022/03/07 08:47:44;;;;;;;11.43;9.50;;;;;;;;;;5013888;28;20333;-76
2022/03/07 08:50:15;;;;;;;11.23;9.60;;;;;;;;;;5014715;28;20206;-75
2022/03/07 08:52:42;;;;;;;10.70;9.60;;;;;;;;;;5013304;28;20216;-74
2022/03/07 08:55:09;;;;;;;11.17;9.07;;;;;;;;;;5011855;28;20250;-78
2022/03/07 08:57:37;;;;;;;19.03;10.80;;;;;;;;;;5015021;28;20210;-74
2022/03/07 09:00:05;;;;;;;9.97;8.97;;;;;;;;;;5007797;28;20319;-75
2022/03/07 09:02:34;;;;;;;11.87;9.90;;;;;;;;;;5004834;28;20215;-74
2022/03/07 09:05:01;;;;;;;11.90;9.97;;;;;;;;;;5009746;28;20313;-73
2022/03/07 09:07:28;;;;;;;15.70;9.47;;;;;;;;;;5007805;28;20207;-74
2022/03/07 09:09:56;;;;;;;10.83;9.33;;;;;;;;;;5013334;28;20203;-74
2022/03/07 09:12:27;;;;;;;14.03;10.70;;;;;;;;;;5007587;28;20232;-74
2022/03/07 09:14:54;;;;;;;12.00;9.90;;;;;;;;;;5003381;28;20278;-74
2022/03/07 09:17:21;;;;;;;15.27;10.37;;;;;;;;;;5007471;28;20293;-73
2022/03/07 09:19:50;;;;;;;10.87;9.87;;;;;;;;;;5015573;28;20273;-74
2022/03/07 09:22:18;;;;;;;10.53;9.43;;;;;;;;;;5013653;28;20222;-75
2022/03/07 09:24:45;;;;;;;10.33;8.97;;;;;;;;;;5014388;28;20269;-74
2022/03/07 09:27:12;;;;;;;11.07;9.93;;;;;;;;;;5013578;28;20202;-74
2022/03/07 09:29:39;;;;;;;11.37;9.70;;;;;;;;;;5009852;28;20207;-74
2022/03/07 09:32:07;;;;;;;10.93;9.80;;;;;;;;;;5007194;28;20210;-75
2022/03/07 09:34:34;;;;;;;13.80;10.33;;;;;;;;;;5006603;28;20276;-74
2022/03/07 09:37:05;;;;;;;13.53;10.47;;;;;;;;;;5012366;28;20230;-74
2022/03/07 09:39:33;;;;;;;10.70;9.60;;;;;;;;;;5006944;28;20281;-75
2022/03/07 09:42:00;;;;;;;13.80;10.30;;;;;;;;;;5010413;28;20206;-74
2022/03/07 09:44:28;;;;;;;18.23;10.70;;;;;;;;;;5011248;28;20230;-74
2022/03/07 09:46:57;;;;;;;11.07;9.97;;;;;;;;;;5008413;28;20294;-74
2022/03/07 09:49:24;;;;;;;14.73;11.03;;;;;;;;;;5012230;28;20208;-74
2022/03/07 09:51:52;;;;;;;11.57;10.37;;;;;;;;;;5007312;28;20259;-74
2022/03/07 09:54:21;;;;;;;12.37;10.70;;;;;;;;;;5013307;28;20266;-76
2022/03/07 09:56:48;;;;;;;12.70;10.47;;;;;;;;;;5010762;28;20267;-74
2022/03/07 09:59:17;;;;;;;11.37;10.17;;;;;;;;;;5011327;28;20290;-74
2022/03/07 10:01:44;;;;;;;12.67;10.60;;;;;;;;;;5006090;28;20207;-74
2022/03/07 10:04:12;;;;;;;13.67;10.80;;;;;;;;;;5002269;28;20237;-74
2022/03/07 10:06:40;;;;;;;12.30;10.60;;;;;;;;;;5007010;28;20198;-74
2022/03/07 10:09:08;;;;;;;13.27;11.47;;;;;;;;;;5005726;28;20263;-74
2022/03/07 10:11:36;;;;;;;11.87;10.60;;;;;;;;;;5002919;28;20346;-74
2022/03/07 10:14:05;;;;;;;11.37;9.90;;;;;;;;;;5008947;28;20218;-74
2022/03/07 10:16:39;;;;;;;11.30;10.13;;;;;;;;;;5006380;28;20210;-73
2022/03/07 10:19:09;;;;;;;10.90;9.80;;;;;;;;;;5001756;28;20258;-74
2022/03/07 10:21:36;;;;;;;10.77;9.70;;;;;;;;;;5012500;28;20212;-74
2022/03/07 10:24:04;;;;;;;12.40;10.83;;;;;;;;;;5012213;28;20277;-75
2022/03/07 10:26:35;;;;;;;11.20;9.97;;;;;;;;;;5011931;28;20253;-73
2022/03/07 10:29:06;;;;;;;12.03;10.83;;;;;;;;;;5010516;28;20202;-74
2022/03/07 10:31:33;;;;;;;10.40;9.40;;;;;;;;;;5012460;28;20207;-74
2022/03/07 10:34:02;;;;;;;10.47;9.40;;;;;;;;;;5013958;28;20300;-76
2022/03/07 10:36:33;;;;;;;10.23;9.23;;;;;;;;;;5024189;28;20210;-77
2022/03/07 10:39:00;;;;;;;10.10;9.20;;;;;;;;;;5015491;28;20206;-76
2022/03/07 10:41:34;;;;;;;9.83;8.90;;;;;;;;;;5013994;28;20294;-74
2022/03/07 10:44:01;;;;;;;11.33;10.03;;;;;;;;;;5008808;28;20254;-75
2022/03/07 10:46:30;;;;;;;10.87;9.80;;;;;;;;;;5012206;28;20209;-75
2022/03/07 10:48:57;;;;;;;12.53;9.37;;;;;;;;;;5010010;28;20203;-75
2022/03/07 10:51:25;;;;;;;11.33;10.20;;;;;;;;;;5011063;28;20209;-75
2022/03/07 10:53:52;;;;;;;11.60;10.50;;;;;;;;;;5011929;28;20218;-76
2022/03/07 10:56:21;;;;;;;11.60;10.40;;;;;;;;;;5011941;28;20209;-75
2022/03/07 10:58:48;;;;;;;10.93;9.83;;;;;;;;;;5011270;28;20225;-75
2022/03/07 11:01:27;;;;;;;10.87;9.77;;;;;;;;;;5010619;28;20199;-75
2022/03/07 11:03:58;;;;;;;10.77;9.47;;;;;;;;;;5007941;28;20241;-77
2022/03/07 11:06:26;;;;;;;11.50;10.07;;;;;;;;;;5007269;28;20206;-74
2022/03/07 11:08:53;;;;;;;11.23;9.80;;;;;;;;;;5007700;28;20198;-76
2022/03/07 11:11:21;;;;;;;10.80;9.70;;;;;;;;;;5009676;28;20195;-74
2022/03/07 11:13:52;;;;;;;10.17;9.17;;;;;;;;;;5008862;28;20215;-75
2022/03/07 11:16:19;;;;;;;11.37;10.30;;;;;;;;;;5007929;28;20205;-77
2022/03/07 11:18:49;;;;;;;10.97;9.87;;;;;;;;;;5002650;28;20326;-76
2022/03/07 11:21:18;;;;;;;10.40;9.40;;;;;;;;;;5003052;28;20202;-77
2022/03/07 11:23:45;;;;;;;11.20;10.10;;;;;;;;;;5004222;28;20287;-77
2022/03/07 11:26:12;;;;;;;10.70;9.63;;;;;;;;;;5014709;28;20276;-76
2022/03/07 11:28:40;;;;;;;11.07;10.03;;;;;;;;;;5013104;28;20289;-79
2022/03/07 11:31:07;;;;;;;10.27;9.27;;;;;;;;;;5014662;28;20234;-76
2022/03/07 11:33:37;;;;;;;11.17;9.97;;;;;;;;;;5016146;28;20214;-75
2022/03/07 11:36:05;;;;;;;10.97;9.47;;;;;;;;;;5015426;28;20206;-77
2022/03/07 11:38:35;;;;;;;11.90;10.80;;;;;;;;;;5014997;28;20207;-78
2022/03/07 11:41:06;;;;;;;10.73;9.63;;;;;;;;;;5015926;28;20208;-75
2022/03/07 11:43:34;;;;;;;10.57;9.47;;;;;;;;;;5015440;28;20223;-76
2022/03/07 11:46:02;;;;;;;11.63;10.43;;;;;;;;;;5013334;28;20275;-77
2022/03/07 11:48:32;;;;;;;10.57;9.40;;;;;;;;;;5011760;28;20202;-76
2022/03/07 11:50:59;;;;;;;11.40;10.20;;;;;;;;;;5010999;28;20207;-76
2022/03/07 11:53:27;;;;;;;11.63;10.07;;;;;;;;;;5012648;28;20285;-76
2022/03/07 11:55:56;;;;;;;11.57;9.90;;;;;;;;;;5008278;28;20242;-76
2022/03/07 11:58:30;;;;;;;10.83;9.73;;;;;;;;;;5010062;28;20203;-77
2022/03/07 12:01:05;;;;;;;10.73;9.63;;;;;;;;;;5013259;28;20202;-76
2022/03/07 12:03:34;;;;;;;11.97;9.90;;;;;;;;;;5009603;28;20221;-75
2022/03/07 12:06:06;;;;;;;11.27;9.73;;;;;;;;;;5014480;28;20207;-75
2022/03/07 12:08:43;;;;;;;11.03;9.93;;;;;;;;;;5011820;28;20199;-78
2022/03/07 12:11:13;;;;;;;10.33;9.33;;;;;;;;;;5012186;28;20234;-77
2022/03/07 12:13:47;;;;;;;11.10;9.87;;;;;;;;;;5006681;28;20214;-76
2022/03/07 12:16:24;;;;;;;11.43;10.33;;;;;;;;;;5007174;28;20199;-76
2022/03/07 12:18:52;;;;;;;12.17;10.13;;;;;;;;;;5012425;28;20214;-76
2022/03/07 12:21:25;;;;;;;12.77;10.30;;;;;;;;;;5013876;28;20198;-75
2022/03/07 12:23:52;;;;;;;11.43;10.27;;;;;;;;;;5014334;28;20222;-76
2022/03/07 12:26:21;;;;;;;10.60;9.10;;;;;;;;;;5009217;28;20209;-75
2022/03/07 12:28:49;;;;;;;10.50;9.50;;;;;;;;;;5015882;28;20285;-76
2022/03/07 12:31:16;;;;;;;10.83;9.73;;;;;;;;;;5008972;28;20207;-75
2022/03/07 12:33:47;;;;;;;10.87;9.77;;;;;;;;;;5013680;28;20301;-75
2022/03/07 12:36:15;;;;;;;10.67;9.60;;;;;;;;;;5015288;28;20202;-75
2022/03/07 12:38:47;;;;;;;11.30;10.20;;;;;;;;;;5011372;28;20191;-75
2022/03/07 12:41:15;;;;;;;12.60;9.73;;;;;;;;;;5015046;28;20198;-75
2022/03/07 12:43:45;;;;;;;11.03;9.83;;;;;;;;;;5014002;28;20292;-74
2022/03/07 12:46:15;;;;;;;10.60;9.50;;;;;;;;;;5012949;28;20217;-74
2022/03/07 12:48:43;;;;;;;11.17;9.60;;;;;;;;;;5013183;28;20207;-74
2022/03/07 12:51:11;;;;;;;11.47;10.33;;;;;;;;;;5020480;28;20205;-74
2022/03/07 12:53:47;;;;;;;11.70;10.40;;;;;;;;;;5016793;28;20199;-73
2022/03/07 12:56:15;;;;;;;11.10;10.00;;;;;;;;;;5007900;28;20201;-73
2022/03/07 12:58:54;;;;;;;11.13;10.03;;;;;;;;;;5010231;28;20261;-74
2022/03/07 13:01:22;;;;;;;11.27;10.07;;;;;;;;;;5013923;28;20216;-74
2022/03/07 13:03:51;;;;;;;10.17;9.20;;;;;;;;;;5011296;28;20222;-74
2022/03/07 13:06:19;;;;;;;9.87;8.97;;;;;;;;;;5011539;28;20200;-74
2022/03/07 13:08:47;;;;;;;11.20;9.80;;;;;;;;;;5011592;28;20230;-74
2022/03/07 13:11:14;;;;;;;10.33;9.30;;;;;;;;;;5012938;28;20229;-75
2022/03/07 13:13:42;;;;;;;10.57;9.47;;;;;;;;;;5011556;28;20245;-71
2022/03/07 13:16:11;;;;;;;11.57;10.40;;;;;;;;;;5012247;28;20203;-73
2022/03/07 13:18:38;;;;;;;11.27;9.90;;;;;;;;;;5009538;28;20203;-73
2022/03/07 13:21:06;;;;;;;10.50;9.37;;;;;;;;;;5012887;28;20194;-74
2022/03/07 13:23:33;;;;;;;10.60;9.57;;;;;;;;;;5012682;28;20276;-74
2022/03/07 13:26:03;;;;;;;10.60;9.60;;;;;;;;;;5013737;28;20210;-74
2022/03/07 13:28:32;;;;;;;10.87;9.80;;;;;;;;;;5014696;28;20198;-74
2022/03/07 13:30:59;;;;;;;10.47;9.13;;;;;;;;;;5014276;28;20264;-74
2022/03/07 13:33:34;;;;;;;12.90;9.50;;;;;;;;;;5012896;28;20202;-74
2022/03/07 13:36:10;;;;;;;10.90;9.80;;;;;;;;;;5012978;28;20289;-75
2022/03/07 13:38:38;;;;;;;12.50;10.00;;;;;;;;;;5011733;28;20256;-75
2022/03/07 13:41:08;;;;;;;10.63;9.53;;;;;;;;;;5012888;28;20206;-75
2022/03/07 13:43:36;;;;;;;12.73;9.77;;;;;;;;;;5012593;28;20206;-75
2022/03/07 13:46:13;;;;;;;11.27;10.17;;;;;;;;;;5012573;28;20264;-75
2022/03/07 13:48:42;;;;;;;11.00;9.90;;;;;;;;;;5011444;28;20214;-74
2022/03/07 13:51:09;;;;;;;11.13;9.97;;;;;;;;;;5012999;28;20698;-73
2022/03/07 13:53:38;;;;;;;11.13;9.97;;;;;;;;;;5013389;28;20207;-73
2022/03/07 13:56:06;;;;;;;11.40;10.23;;;;;;;;;;5013523;28;20211;-76
2022/03/07 13:58:34;;;;;;;10.77;9.77;;;;;;;;;;5013316;28;20206;-75
2022/03/07 14:01:05;;;;;;;13.97;10.33;;;;;;;;;;5016921;28;20210;-74
2022/03/07 14:03:32;;;;;;;11.37;10.17;;;;;;;;;;5011843;28;20253;-73
2022/03/07 14:06:01;;;;;;;12.00;10.10;;;;;;;;;;5008373;28;20218;-74
2022/03/07 14:08:37;;;;;;;11.37;10.20;;;;;;;;;;5013279;28;20261;-76
2022/03/07 14:11:05;;;;;;;12.07;10.83;;;;;;;;;;5009012;28;20210;-75
2022/03/07 14:13:39;;;;;;;11.97;10.07;;;;;;;;;;5007019;28;20218;-75
2022/03/07 14:16:06;;;;;;;14.17;11.13;;;;;;;;;;5006496;28;20206;-74
2022/03/07 14:18:34;;;;;;;12.57;10.37;;;;;;;;;;5007539;28;20203;-74
2022/03/07 14:21:03;;;;;;;11.13;9.93;;;;;;;;;;5012415;28;20264;-75
2022/03/07 14:23:31;;;;;;;11.93;9.50;;;;;;;;;;5013115;28;20209;-75
2022/03/07 14:26:01;;;;;;;11.53;10.40;;;;;;;;;;5009142;28;20285;-74
2022/03/07 14:28:32;;;;;;;11.80;10.57;;;;;;;;;;5011938;28;20210;-76
2022/03/07 14:30:59;;;;;;;11.13;9.93;;;;;;;;;;5004255;28;20210;-75
2022/03/07 14:33:35;;;;;;;11.60;10.50;;;;;;;;;;5010733;28;20199;-75
2022/03/07 14:36:11;;;;;;;11.80;10.60;;;;;;;;;;5008362;28;20202;-79